Time;durP1;ratioP1;P1;durP2;ratioP2;P2;SDS_P1;SDS_P2;PMS_P1;PMS_P2;Temp;Humidity;BMP_temperature;BMP_pressure;BME280_temperature;BME280_humidity;BME280_pressure;Samples;Min_cycle;Max_cycle;Signal;HPM_P1;HPM_P2
2022/06/19 00:01:09;;;;;;;19.65;3.33;;;15.00;99.90;;;;;;5113192;27;20513;-81
2022/06/19 00:03:42;;;;;;;14.02;2.47;;;15.00;99.90;;;;;;5094971;27;20118;-81
2022/06/19 00:06:08;;;;;;;13.48;2.55;;;15.00;99.90;;;;;;5111035;27;20538;-82
2022/06/19 00:08:34;;;;;;;10.75;2.50;;;15.00;99.90;;;;;;5083057;27;20433;-81
2022/06/19 00:11:01;;;;;;;15.38;3.00;;;15.00;99.90;;;;;;5100220;27;20116;-82
2022/06/19 00:13:27;;;;;;;12.30;3.03;;;15.00;99.90;;;;;;5113995;27;20491;-82
2022/06/19 00:15:54;;;;;;;13.73;3.05;;;15.00;99.90;;;;;;5106688;27;20032;-83
2022/06/19 00:18:20;;;;;;;19.98;3.33;;;14.90;99.90;;;;;;5106369;27;20035;-83
2022/06/19 00:20:46;;;;;;;16.23;2.97;;;15.00;99.90;;;;;;5096880;28;20035;-81
2022/06/19 00:23:12;;;;;;;12.60;2.63;;;15.00;99.90;;;;;;5097252;27;20054;-83
2022/06/19 00:25:38;;;;;;;13.65;2.80;;;15.00;99.90;;;;;;5113396;27;20027;-83
2022/06/19 00:28:06;;;;;;;17.55;3.15;;;15.00;99.90;;;;;;5087309;27;20126;-83
2022/06/19 00:30:32;;;;;;;16.63;2.40;;;15.00;99.90;;;;;;5116345;27;20043;-83
2022/06/19 00:32:58;;;;;;;18.27;2.90;;;14.90;99.90;;;;;;5115662;27;20407;-83
2022/06/19 00:35:28;;;;;;;20.63;3.53;;;14.90;99.90;;;;;;5085124;28;20090;-83
2022/06/19 00:37:54;;;;;;;17.25;3.55;;;14.90;99.90;;;;;;5072359;28;20058;-83
2022/06/19 00:40:21;;;;;;;18.30;3.08;;;14.90;99.90;;;;;;5093707;28;20051;-83
2022/06/19 00:42:47;;;;;;;15.38;3.33;;;14.90;99.90;;;;;;5106684;28;20118;-83
2022/06/19 00:45:34;;;;;;;14.80;4.00;;;14.90;99.90;;;;;;5103082;28;20122;-83
2022/06/19 00:48:16;;;;;;;14.30;3.17;;;14.90;99.90;;;;;;5095862;28;20028;-83
2022/06/19 00:50:45;;;;;;;16.52;2.63;;;14.90;99.90;;;;;;5114483;28;20043;-83
2022/06/19 00:53:40;;;;;;;12.60;2.70;;;14.90;99.90;;;;;;5107880;28;20042;-83
2022/06/19 00:56:11;;;;;;;13.95;2.92;;;14.90;99.90;;;;;;5089844;28;20035;-83
2022/06/19 00:58:40;;;;;;;17.75;2.97;;;14.90;99.90;;;;;;5096825;28;20035;-83
2022/06/19 01:01:10;;;;;;;16.90;2.90;;;14.90;99.90;;;;;;5099354;28;20054;-84
2022/06/19 01:03:51;;;;;;;16.60;3.10;;;14.90;99.90;;;;;;5109712;28;20035;-83
2022/06/19 01:06:17;;;;;;;14.20;2.75;;;14.90;99.90;;;;;;5093909;28;20031;-83
2022/06/19 01:08:43;;;;;;;14.73;2.78;;;14.90;99.90;;;;;;5114213;28;20399;-84
2022/06/19 01:11:09;;;;;;;13.57;2.72;;;14.80;99.90;;;;;;5091097;28;20407;-83
2022/06/19 01:13:36;;;;;;;14.80;2.58;;;14.80;99.90;;;;;;5112138;28;20078;-84
2022/06/19 01:16:04;;;;;;;15.50;2.65;;;14.80;99.90;;;;;;5099132;28;20089;-83
2022/06/19 01:18:33;;;;;;;14.07;2.90;;;14.90;99.90;;;;;;5110792;28;20047;-83
2022/06/19 01:21:22;;;;;;;19.35;3.03;;;14.80;99.90;;;;;;5116587;28;20446;-83
2022/06/19 01:23:51;;;;;;;13.88;2.65;;;14.90;99.90;;;;;;5106594;28;20525;-83
2022/06/19 01:26:19;;;;;;;11.23;2.83;;;14.90;99.90;;;;;;5095347;28;20039;-83
2022/06/19 01:28:57;;;;;;;11.73;2.60;;;15.00;99.90;;;;;;5115892;28;20047;-84
2022/06/19 01:31:28;;;;;;;12.70;3.00;;;15.00;99.90;;;;;;5101699;28;20046;-83
2022/06/19 01:34:41;;;;;;;9.80;2.45;;;15.10;99.90;;;;;;5089704;28;20059;-82
2022/06/19 01:37:12;;;;;;;7.97;2.00;;;15.10;99.90;;;;;;5107647;28;20060;-83
2022/06/19 01:39:42;;;;;;;14.63;2.53;;;15.00;99.90;;;;;;5110876;28;20047;-83
2022/06/19 01:42:10;;;;;;;15.15;3.20;;;15.10;99.90;;;;;;5116233;28;20096;-83
2022/06/19 01:44:36;;;;;;;14.13;2.65;;;15.00;99.90;;;;;;5095871;28;20051;-83
2022/06/19 01:47:03;;;;;;;11.48;1.98;;;15.00;99.90;;;;;;5104689;28;20436;-83
2022/06/19 01:49:34;;;;;;;10.88;2.08;;;15.00;99.90;;;;;;5100033;28;20035;-83
2022/06/19 01:52:02;;;;;;;7.90;1.85;;;14.90;99.90;;;;;;5098406;28;20039;-83
2022/06/19 01:54:33;;;;;;;8.50;1.77;;;14.90;99.90;;;;;;5118495;27;20096;-82
2022/06/19 01:56:59;;;;;;;5.40;1.65;;;14.90;99.90;;;;;;5101493;28;20043;-83
2022/06/19 01:59:31;;;;;;;6.75;1.63;;;14.80;99.90;;;;;;5095712;28;20032;-83
2022/06/19 02:01:59;;;;;;;7.35;1.38;;;14.80;99.90;;;;;;5120457;27;20043;-82
2022/06/19 02:04:25;;;;;;;10.60;1.92;;;14.70;99.90;;;;;;5136245;27;20105;-83
2022/06/19 02:06:57;;;;;;;7.57;1.48;;;14.70;99.90;;;;;;5143300;27;20031;-84
2022/06/19 02:09:23;;;;;;;9.95;1.80;;;14.70;99.90;;;;;;5108606;28;20048;-84
2022/06/19 02:11:50;;;;;;;12.73;1.67;;;14.60;99.90;;;;;;5081149;27;20474;-83
2022/06/19 02:14:17;;;;;;;9.65;1.50;;;14.70;99.90;;;;;;5100749;27;20035;-84
2022/06/19 02:16:46;;;;;;;11.90;2.33;;;14.60;99.90;;;;;;5117168;27;20071;-83
2022/06/19 02:19:12;;;;;;;12.98;1.73;;;14.70;99.90;;;;;;5089426;27;20031;-83
2022/06/19 02:21:39;;;;;;;9.15;2.25;;;14.70;99.90;;;;;;5119265;27;20096;-83
2022/06/19 02:24:12;;;;;;;9.32;2.00;;;14.80;99.90;;;;;;5113675;27;20056;-83
2022/06/19 02:26:40;;;;;;;11.13;1.77;;;14.80;99.90;;;;;;5119681;27;20114;-83
2022/06/19 02:29:09;;;;;;;10.18;2.08;;;14.70;99.90;;;;;;5110990;27;20099;-83
2022/06/19 02:31:37;;;;;;;8.52;2.03;;;14.80;99.90;;;;;;5099816;27;20042;-82
2022/06/19 02:34:07;;;;;;;11.95;2.38;;;14.80;99.90;;;;;;5113547;27;20134;-83
2022/06/19 02:36:39;;;;;;;11.43;2.53;;;14.80;99.90;;;;;;5115083;27;20566;-83
2022/06/19 02:39:20;;;;;;;9.10;1.98;;;14.80;99.90;;;;;;5093873;27;20044;-82
2022/06/19 02:41:54;;;;;;;13.25;2.53;;;14.80;99.90;;;;;;5101756;27;20119;-83
2022/06/19 02:44:19;;;;;;;12.45;2.40;;;14.70;99.90;;;;;;5112640;27;20035;-83
2022/06/19 02:46:45;;;;;;;11.80;2.20;;;14.70;99.90;;;;;;5099966;27;20037;-82
2022/06/19 02:49:11;;;;;;;15.38;2.20;;;14.70;99.90;;;;;;5118314;27;20535;-82
2022/06/19 02:51:37;;;;;;;10.60;2.08;;;14.70;99.90;;;;;;5098427;27;20043;-83
2022/06/19 02:54:02;;;;;;;10.65;2.25;;;14.80;99.90;;;;;;5114803;27;20035;-82
2022/06/19 02:56:28;;;;;;;11.18;2.20;;;14.70;99.90;;;;;;5110521;27;20043;-83
2022/06/19 02:58:53;;;;;;;13.73;3.05;;;14.70;99.90;;;;;;5095530;27;20058;-82
2022/06/19 03:01:19;;;;;;;11.90;2.55;;;14.70;99.90;;;;;;5097190;27;20046;-83
2022/06/19 03:03:45;;;;;;;9.45;2.08;;;14.70;99.90;;;;;;5092437;27;20031;-83
2022/06/19 03:06:10;;;;;;;12.02;2.30;;;14.60;99.90;;;;;;5096953;27;20071;-83
2022/06/19 03:08:36;;;;;;;18.15;3.63;;;14.60;99.90;;;;;;5095623;27;20130;-82
2022/06/19 03:11:06;;;;;;;15.27;2.60;;;14.60;99.90;;;;;;5097801;27;20035;-83
2022/06/19 03:13:32;;;;;;;14.40;2.53;;;14.60;99.90;;;;;;5095744;27;20041;-82
2022/06/19 03:16:02;;;;;;;10.77;2.25;;;14.60;99.90;;;;;;5113745;27;20031;-83
2022/06/19 03:18:29;;;;;;;13.75;2.40;;;14.50;99.90;;;;;;5094084;27;20035;-82
2022/06/19 03:20:55;;;;;;;14.43;2.70;;;14.50;99.90;;;;;;5115178;27;20061;-83
2022/06/19 03:23:21;;;;;;;16.13;2.78;;;14.60;99.90;;;;;;5096293;27;20488;-83
2022/06/19 03:25:47;;;;;;;10.48;2.42;;;14.60;99.90;;;;;;5081423;28;20036;-83
2022/06/19 03:28:13;;;;;;;10.18;2.10;;;14.60;99.90;;;;;;5095058;27;20543;-83
2022/06/19 03:30:38;;;;;;;17.92;2.50;;;14.50;99.90;;;;;;5091816;27;20035;-82
2022/06/19 03:33:04;;;;;;;17.65;2.45;;;14.50;99.90;;;;;;5093194;27;20082;-82
2022/06/19 03:35:30;;;;;;;9.10;2.50;;;14.50;99.90;;;;;;5083593;27;20099;-83
2022/06/19 03:37:56;;;;;;;13.27;2.70;;;14.40;99.90;;;;;;5118112;27;20047;-82
2022/06/19 03:40:21;;;;;;;13.45;2.80;;;14.50;99.90;;;;;;5073899;28;20099;-83
2022/06/19 03:42:47;;;;;;;10.43;2.50;;;14.40;99.90;;;;;;5088285;27;20035;-82
2022/06/19 03:45:13;;;;;;;15.50;2.80;;;14.50;99.90;;;;;;5100095;27;20031;-83
2022/06/19 03:47:39;;;;;;;14.60;2.35;;;14.50;99.90;;;;;;5111604;27;20031;-83
2022/06/19 03:50:06;;;;;;;14.52;2.80;;;14.50;99.90;;;;;;5100169;27;20144;-83
2022/06/19 03:52:32;;;;;;;15.32;2.60;;;14.50;99.90;;;;;;5109932;28;20510;-83
2022/06/19 03:54:58;;;;;;;13.50;2.83;;;14.50;99.90;;;;;;5078901;28;20039;-82
2022/06/19 03:57:24;;;;;;;12.95;2.83;;;14.50;99.90;;;;;;5098713;27;20039;-83
2022/06/19 03:59:50;;;;;;;17.08;2.60;;;14.50;99.90;;;;;;5090712;27;20070;-83
2022/06/19 04:02:15;;;;;;;13.00;2.67;;;14.60;99.90;;;;;;5093673;27;20491;-82
2022/06/19 04:04:42;;;;;;;15.88;2.60;;;14.60;99.90;;;;;;5117293;27;20126;-82
2022/06/19 04:07:11;;;;;;;12.23;2.85;;;14.60;99.90;;;;;;5094586;28;20039;-82
2022/06/19 04:09:37;;;;;;;11.35;2.30;;;14.60;99.90;;;;;;5103152;27;20498;-82
2022/06/19 04:12:03;;;;;;;11.82;2.63;;;14.50;99.90;;;;;;5117640;27;20035;-83
2022/06/19 04:14:29;;;;;;;12.20;1.88;;;14.50;99.90;;;;;;5116336;28;20043;-82
2022/06/19 04:16:55;;;;;;;11.70;2.30;;;14.50;99.90;;;;;;5098693;27;20099;-82
2022/06/19 04:19:20;;;;;;;10.30;2.17;;;14.50;99.90;;;;;;5100139;27;20047;-83
2022/06/19 04:21:46;;;;;;;7.85;2.05;;;14.40;99.90;;;;;;5093650;28;20127;-82
2022/06/19 04:24:15;;;;;;;12.23;1.58;;;14.50;99.90;;;;;;5116757;27;20437;-82
2022/06/19 04:26:41;;;;;;;8.05;1.83;;;14.50;99.90;;;;;;5095061;27;20124;-82
2022/06/19 04:29:09;;;;;;;8.85;2.00;;;14.50;99.90;;;;;;5092282;27;20058;-82
2022/06/19 04:31:36;;;;;;;8.32;2.00;;;14.50;99.90;;;;;;5115463;27;20118;-83
2022/06/19 04:34:02;;;;;;;8.68;2.20;;;14.60;99.90;;;;;;5114129;28;20509;-82
2022/06/19 04:36:29;;;;;;;10.65;2.20;;;14.60;99.90;;;;;;5113600;28;20074;-82
2022/06/19 04:38:56;;;;;;;11.57;2.15;;;14.70;99.90;;;;;;5115976;27;20031;-83
2022/06/19 04:41:26;;;;;;;13.68;2.47;;;14.70;99.90;;;;;;5112646;27;20873;-82
2022/06/19 04:43:53;;;;;;;9.70;1.80;;;14.70;99.90;;;;;;5096654;27;20075;-83
2022/06/19 04:46:19;;;;;;;11.52;2.35;;;14.70;99.90;;;;;;5095697;28;20027;-82
2022/06/19 04:48:46;;;;;;;9.13;2.10;;;14.70;99.90;;;;;;5081484;27;20043;-82
2022/06/19 04:51:12;;;;;;;8.05;2.25;;;14.70;99.90;;;;;;5094193;27;20427;-83
2022/06/19 04:53:39;;;;;;;9.25;2.15;;;14.80;99.90;;;;;;5093379;28;20058;-83
2022/06/19 04:56:06;;;;;;;10.45;2.20;;;14.80;99.90;;;;;;5071055;28;20073;-82
2022/06/19 04:58:32;;;;;;;10.18;2.00;;;14.80;99.90;;;;;;5102006;28;20040;-82
2022/06/19 05:01:01;;;;;;;10.20;1.77;;;14.90;99.90;;;;;;5113133;28;20391;-83
2022/06/19 05:03:27;;;;;;;11.05;2.17;;;14.90;99.90;;;;;;5095320;28;20041;-83
2022/06/19 05:05:53;;;;;;;10.55;2.35;;;15.00;99.90;;;;;;5093834;28;20035;-82
2022/06/19 05:08:20;;;;;;;12.55;2.10;;;15.00;99.90;;;;;;5116246;28;20146;-82
2022/06/19 05:10:46;;;;;;;10.20;1.98;;;14.90;99.90;;;;;;5112050;28;20146;-82
2022/06/19 05:13:20;;;;;;;11.48;3.00;;;14.90;99.90;;;;;;5095684;28;20707;-82
2022/06/19 05:15:47;;;;;;;8.93;1.95;;;14.90;99.90;;;;;;5092193;28;20043;-83
2022/06/19 05:18:14;;;;;;;13.25;2.35;;;14.80;99.90;;;;;;5089701;28;20067;-82
2022/06/19 05:20:40;;;;;;;8.55;2.30;;;14.80;99.90;;;;;;5107143;28;20100;-83
2022/06/19 05:23:07;;;;;;;10.88;2.30;;;14.70;99.90;;;;;;5110370;28;20038;-83
2022/06/19 05:25:33;;;;;;;9.98;2.60;;;14.60;99.90;;;;;;5089881;28;20538;-83
2022/06/19 05:27:59;;;;;;;10.13;2.58;;;14.50;99.90;;;;;;5091624;27;20094;-82
2022/06/19 05:30:25;;;;;;;13.55;2.53;;;14.40;99.90;;;;;;5109117;27;20044;-83
2022/06/19 05:32:51;;;;;;;11.07;2.70;;;14.30;99.90;;;;;;5097143;27;20611;-83
2022/06/19 05:35:17;;;;;;;11.00;2.53;;;14.30;99.90;;;;;;5094325;27;20051;-83
2022/06/19 05:37:43;;;;;;;9.80;2.00;;;14.30;99.90;;;;;;5098002;27;20047;-82
2022/06/19 05:40:09;;;;;;;16.45;2.50;;;14.20;99.90;;;;;;5114108;27;20039;-83
2022/06/19 05:42:36;;;;;;;12.10;2.10;;;14.20;99.90;;;;;;5116038;27;20126;-83
2022/06/19 05:45:02;;;;;;;11.27;2.70;;;14.20;99.90;;;;;;5113900;27;20039;-83
2022/06/19 05:47:27;;;;;;;15.10;2.65;;;14.30;99.90;;;;;;5114903;27;20513;-83
2022/06/19 05:49:53;;;;;;;12.20;2.22;;;14.30;99.90;;;;;;5112876;27;20070;-82
2022/06/19 05:52:24;;;;;;;13.48;2.33;;;14.30;99.90;;;;;;5084555;27;20066;-83
2022/06/19 05:54:53;;;;;;;10.60;2.50;;;14.30;99.90;;;;;;5112658;27;20062;-83
2022/06/19 05:57:20;;;;;;;13.13;2.75;;;14.30;99.90;;;;;;5119172;27;20047;-82
2022/06/19 05:59:46;;;;;;;12.02;2.20;;;14.30;99.90;;;;;;5116841;27;20084;-83
2022/06/19 06:02:21;;;;;;;10.63;2.20;;;14.30;99.90;;;;;;5119583;27;20491;-82
2022/06/19 06:04:47;;;;;;;11.82;2.47;;;14.30;99.90;;;;;;5099412;27;20487;-83
2022/06/19 06:07:13;;;;;;;12.73;3.15;;;14.50;99.90;;;;;;5118678;27;20039;-85
2022/06/19 06:09:38;;;;;;;11.40;2.38;;;14.20;99.90;;;;;;5096159;28;20119;-84
2022/06/19 06:12:05;;;;;;;18.23;2.90;;;14.30;99.90;;;;;;5097769;27;20039;-83
2022/06/19 06:14:31;;;;;;;10.45;1.88;;;14.20;99.90;;;;;;5112993;27;20509;-82
2022/06/19 06:16:57;;;;;;;12.65;2.85;;;14.20;99.90;;;;;;5094816;28;20043;-83
2022/06/19 06:19:22;;;;;;;13.25;2.55;;;14.20;99.90;;;;;;5114050;27;20050;-82
2022/06/19 06:21:48;;;;;;;12.63;2.40;;;14.20;99.90;;;;;;5101295;27;20063;-82
2022/06/19 06:24:17;;;;;;;13.35;2.15;;;14.20;99.90;;;;;;5114436;27;20075;-81
2022/06/19 06:26:43;;;;;;;10.07;1.92;;;14.20;99.90;;;;;;5080991;28;20042;-82
2022/06/19 06:29:09;;;;;;;12.80;2.22;;;14.20;99.90;;;;;;5095361;27;20043;-82
2022/06/19 06:31:35;;;;;;;9.85;2.40;;;14.20;99.90;;;;;;5120004;27;20054;-82
2022/06/19 06:34:02;;;;;;;11.57;2.20;;;14.20;99.90;;;;;;5112358;28;20120;-83
2022/06/19 06:36:29;;;;;;;9.90;2.15;;;14.20;99.90;;;;;;5108683;27;20145;-82
2022/06/19 06:38:56;;;;;;;13.52;1.98;;;14.30;99.90;;;;;;5110602;27;20100;-83
2022/06/19 06:41:22;;;;;;;11.68;2.28;;;14.30;99.90;;;;;;5101604;27;20054;-85
2022/06/19 06:43:47;;;;;;;7.43;2.17;;;14.20;99.90;;;;;;5118855;27;20031;-82
2022/06/19 06:46:18;;;;;;;14.80;2.80;;;14.20;99.90;;;;;;5103327;27;20075;-83
2022/06/19 06:48:45;;;;;;;14.35;2.90;;;14.20;99.90;;;;;;5114969;27;20167;-84
2022/06/19 06:51:16;;;;;;;12.98;2.47;;;14.20;99.90;;;;;;5114932;27;20559;-83
2022/06/19 06:53:42;;;;;;;12.63;2.40;;;14.10;99.90;;;;;;5108632;27;20081;-83
2022/06/19 06:56:08;;;;;;;14.35;3.05;;;14.10;99.90;;;;;;5113874;27;20491;-83
2022/06/19 06:58:35;;;;;;;14.63;2.80;;;14.10;99.90;;;;;;5088325;28;20114;-85
2022/06/19 07:01:27;;;;;;;15.45;3.13;;;14.10;99.90;;;;;;5095992;28;20391;-85
2022/06/19 07:03:56;;;;;;;12.98;2.22;;;14.10;99.90;;;;;;5112941;27;20120;-83
2022/06/19 07:06:25;;;;;;;13.48;2.72;;;14.10;99.90;;;;;;5119486;27;20041;-82
2022/06/19 07:08:51;;;;;;;14.70;3.40;;;14.10;99.90;;;;;;5110598;27;20038;-83
2022/06/19 07:11:38;;;;;;;15.93;2.85;;;14.20;99.90;;;;;;5113971;27;20037;-83
2022/06/19 07:14:05;;;;;;;13.85;3.20;;;14.20;99.90;;;;;;5091390;28;20162;-83
2022/06/19 07:16:30;;;;;;;13.68;2.70;;;14.30;99.90;;;;;;5099921;27;20035;-82
2022/06/19 07:18:56;;;;;;;16.00;2.65;;;14.30;99.90;;;;;;5107949;28;20042;-82
2022/06/19 07:21:22;;;;;;;14.45;2.60;;;14.30;99.90;;;;;;5091988;28;20032;-82
2022/06/19 07:23:47;;;;;;;10.02;2.22;;;14.30;99.90;;;;;;5081243;28;20531;-82
2022/06/19 07:26:15;;;;;;;10.80;2.53;;;14.30;99.90;;;;;;5104000;27;20052;-84
2022/06/19 07:28:42;;;;;;;10.98;2.22;;;14.30;99.90;;;;;;5116618;27;20047;-83
2022/06/19 07:31:08;;;;;;;17.00;2.53;;;14.30;99.90;;;;;;5100053;27;20525;-83
2022/06/19 07:33:38;;;;;;;11.18;2.42;;;14.20;99.90;;;;;;5118816;27;20043;-82
2022/06/19 07:36:06;;;;;;;12.73;3.08;;;14.20;99.90;;;;;;5124222;27;20027;-83
2022/06/19 07:38:32;;;;;;;13.40;2.85;;;14.20;99.90;;;;;;5140026;27;20043;-83
2022/06/19 07:40:57;;;;;;;11.35;2.65;;;14.20;99.90;;;;;;5117667;27;20173;-83
2022/06/19 07:43:24;;;;;;;10.10;2.80;;;14.20;99.90;;;;;;5077953;27;20047;-83
2022/06/19 07:45:50;;;;;;;12.68;2.78;;;14.20;99.90;;;;;;5100385;27;20127;-83
2022/06/19 07:51:00;;;;;;;12.30;2.08;;;14.30;99.90;;;;;;5113598;27;20043;-83
2022/06/19 07:53:25;;;;;;;10.82;2.55;;;14.30;99.90;;;;;;5116331;27;20039;-82
2022/06/19 07:55:51;;;;;;;9.38;1.88;;;14.30;99.90;;;;;;5101100;28;20039;-83
2022/06/19 07:58:17;;;;;;;11.80;2.60;;;14.40;99.90;;;;;;5115423;27;20055;-83
2022/06/19 08:00:42;;;;;;;10.50;2.47;;;14.40;99.90;;;;;;5089207;28;20403;-83
2022/06/19 08:03:09;;;;;;;14.55;3.08;;;14.40;99.90;;;;;;5086484;28;20036;-92
2022/06/19 08:05:36;;;;;;;13.77;3.45;;;14.50;99.90;;;;;;5075617;28;20123;-84
2022/06/19 08:08:13;;;;;;;15.18;3.30;;;14.60;99.90;;;;;;5111589;27;20406;-84
2022/06/19 08:10:42;;;;;;;12.77;2.97;;;14.60;99.90;;;;;;5114728;27;20043;-82
2022/06/19 08:13:08;;;;;;;12.68;3.22;;;14.60;99.90;;;;;;5112555;27;20057;-83
2022/06/19 08:15:35;;;;;;;15.18;2.95;;;14.60;99.90;;;;;;5091659;28;20519;-84
2022/06/19 08:18:01;;;;;;;15.25;2.90;;;14.60;99.90;;;;;;5103352;27;20127;-85
2022/06/19 08:20:28;;;;;;;14.63;2.42;;;14.60;99.90;;;;;;5077935;28;20067;-83
2022/06/19 08:22:55;;;;;;;16.20;3.05;;;14.70;99.90;;;;;;5097873;27;20110;-83
2022/06/19 08:25:22;;;;;;;12.88;2.95;;;14.80;99.90;;;;;;5094716;27;20122;-83
2022/06/19 08:27:49;;;;;;;21.85;2.85;;;14.80;99.90;;;;;;5110233;27;20059;-84
2022/06/19 08:30:25;;;;;;;18.85;3.08;;;14.80;99.90;;;;;;5116227;27;20047;-83
2022/06/19 08:32:51;;;;;;;24.15;3.60;;;14.80;99.90;;;;;;5112045;27;20035;-84
2022/06/19 08:35:17;;;;;;;16.40;3.08;;;14.80;99.90;;;;;;5099867;27;20035;-83
2022/06/19 08:37:47;;;;;;;19.95;3.38;;;14.80;99.90;;;;;;5111059;27;20054;-84
2022/06/19 08:40:44;;;;;;;13.63;2.85;;;14.70;99.90;;;;;;5095462;27;20070;-83
2022/06/19 08:43:16;;;;;;;15.07;3.35;;;14.60;99.90;;;;;;5095909;28;20042;-84
2022/06/19 08:46:14;;;;;;;18.38;3.28;;;14.60;99.90;;;;;;5092490;28;20035;-84
2022/06/19 08:49:10;;;;;;;18.40;2.97;;;14.60;99.90;;;;;;5105891;27;20110;-84
2022/06/19 08:51:58;;;;;;;27.67;3.20;;;14.50;99.90;;;;;;5091979;27;20093;-84
2022/06/19 08:54:31;;;;;;;14.43;2.63;;;14.50;99.90;;;;;;5092422;28;20051;-84
2022/06/19 08:57:16;;;;;;;14.68;2.67;;;14.50;99.90;;;;;;5106881;28;20035;-84
2022/06/19 09:00:07;;;;;;;17.77;2.88;;;14.60;99.90;;;;;;5107811;28;20491;-83
2022/06/19 09:02:47;;;;;;;17.00;2.67;;;14.60;99.90;;;;;;5098555;27;20125;-84
2022/06/19 09:05:36;;;;;;;9.98;2.30;;;14.60;99.90;;;;;;5113515;27;20031;-84
2022/06/19 09:08:33;;;;;;;18.13;3.33;;;14.60;99.90;;;;;;5112941;27;20043;-84
2022/06/19 09:11:16;;;;;;;16.40;2.90;;;14.60;99.90;;;;;;5114932;27;20043;-86
2022/06/19 09:13:56;;;;;;;15.32;3.10;;;14.50;99.90;;;;;;5116874;27;20036;-84
2022/06/19 09:16:33;;;;;;;17.13;2.97;;;14.60;99.90;;;;;;5107965;27;20032;-84
2022/06/19 09:19:19;;;;;;;17.65;2.70;;;14.50;99.90;;;;;;5114060;27;20130;-84
2022/06/19 09:21:48;;;;;;;;;;;14.50;99.90;;;;;;5106066;27;20035;-83
2022/06/19 09:24:51;;;;;;;13.00;3.13;;;14.50;99.90;;;;;;5121207;27;19930;-84
2022/06/19 09:27:22;;;;;;;13.02;2.45;;;14.50;99.90;;;;;;5112878;27;20051;-84
2022/06/19 09:30:07;;;;;;;13.77;2.45;;;14.60;99.90;;;;;;5120286;27;20035;-84
2022/06/19 09:32:40;;;;;;;14.93;2.85;;;14.70;99.90;;;;;;5117310;27;20586;-83
2022/06/19 09:35:12;;;;;;;12.07;2.40;;;14.70;99.90;;;;;;5116730;27;20088;-84
2022/06/19 09:37:51;;;;;;;12.90;2.60;;;14.70;99.90;;;;;;5112815;28;20058;-83
2022/06/19 09:40:18;;;;;;;14.57;2.58;;;14.80;99.90;;;;;;5115486;27;20114;-84
2022/06/19 09:42:59;;;;;;;9.27;2.40;;;14.70;99.90;;;;;;5125641;27;20051;-85
2022/06/19 09:45:36;;;;;;;14.02;2.42;;;14.70;99.90;;;;;;5117738;27;20102;-83
2022/06/19 09:48:33;;;;;;;12.00;2.38;;;14.80;99.90;;;;;;5109579;27;20501;-84
2022/06/19 09:51:13;;;;;;;8.98;2.50;;;14.70;99.90;;;;;;5094996;28;20028;-83
2022/06/19 09:54:03;;;;;;;12.50;2.58;;;14.70;99.90;;;;;;5115289;27;20513;-85
2022/06/19 09:56:32;;;;;;;9.00;2.33;;;14.80;99.90;;;;;;5102774;27;20118;-85
2022/06/19 09:59:29;;;;;;;7.57;2.08;;;14.80;99.90;;;;;;5115878;28;20047;-83
2022/06/19 10:01:59;;;;;;;11.50;2.63;;;14.80;99.90;;;;;;5097207;27;20054;-84
2022/06/19 10:04:37;;;;;;;9.75;2.05;;;14.90;99.90;;;;;;5090666;27;20054;-87
2022/06/19 10:07:09;;;;;;;10.90;2.30;;;14.90;99.90;;;;;;5121644;27;20035;-85
2022/06/19 10:09:46;;;;;;;9.07;2.22;;;15.00;99.90;;;;;;5117310;27;20031;-85
2022/06/19 10:12:33;;;;;;;9.07;2.22;;;15.10;99.90;;;;;;5099197;27;20039;-85
2022/06/19 10:15:04;;;;;;;11.75;2.67;;;15.10;99.90;;;;;;5090972;27;20086;-86
2022/06/19 10:17:58;;;;;;;7.65;2.17;;;15.30;99.90;;;;;;5114197;28;20047;-86
2022/06/19 10:20:58;;;;;;;10.90;2.30;;;15.40;99.90;;;;;;5118502;27;20451;-85
2022/06/19 10:23:40;;;;;;;8.18;1.85;;;15.60;99.90;;;;;;5080302;27;20055;-85
2022/06/19 10:26:12;;;;;;;11.45;2.13;;;15.60;99.90;;;;;;5119117;27;20054;-87
2022/06/19 10:28:59;;;;;;;9.85;2.40;;;15.70;99.90;;;;;;5117811;27;20058;-86
2022/06/19 10:31:45;;;;;;;8.75;1.90;;;15.90;99.90;;;;;;5102621;27;20043;-86
2022/06/19 10:34:36;;;;;;;8.07;1.60;;;16.10;99.90;;;;;;5103674;27;20093;-86
2022/06/19 10:37:18;;;;;;;8.40;2.03;;;16.30;99.90;;;;;;5090921;27;20068;-86
2022/06/19 10:39:59;;;;;;;5.30;1.52;;;16.40;99.90;;;;;;5117223;27;20039;-88
2022/06/19 10:43:08;;;;;;;10.07;1.70;;;16.50;99.90;;;;;;5109770;28;20051;-88
2022/06/19 10:45:35;;;;;;;6.97;1.67;;;16.50;99.90;;;;;;5090978;27;20050;-84
2022/06/19 10:48:10;;;;;;;8.73;1.50;;;16.50;99.90;;;;;;5088713;27;20077;-85
2022/06/19 10:50:48;;;;;;;8.07;1.77;;;16.60;99.90;;;;;;5107112;27;20475;-87
2022/06/19 10:53:32;;;;;;;8.05;1.90;;;16.60;99.90;;;;;;5113926;27;20031;-87
2022/06/19 10:56:31;;;;;;;4.35;1.77;;;16.60;99.90;;;;;;5118285;27;20039;-88
2022/06/19 10:58:58;;;;;;;8.85;2.50;;;16.60;99.90;;;;;;5114437;27;20049;-86
2022/06/19 11:04:27;;;;;;;8.88;1.95;;;16.40;99.90;;;;;;5104445;27;20047;-87
2022/06/19 11:06:55;;;;;;;8.77;2.05;;;16.50;99.90;;;;;;5101932;27;20050;-85
2022/06/19 11:09:32;;;;;;;7.15;2.00;;;16.50;99.90;;;;;;5105631;28;20148;-86
2022/06/19 11:12:05;;;;;;;7.82;1.70;;;16.30;99.90;;;;;;5108230;28;20046;-86
2022/06/19 11:14:38;;;;;;;10.48;1.77;;;16.30;99.90;;;;;;5110098;27;20122;-86
2022/06/19 11:17:07;;;;;;;11.32;1.90;;;16.30;99.90;;;;;;5100986;27;20521;-86
2022/06/19 11:19:42;;;;;;;8.00;1.80;;;16.30;99.90;;;;;;5103439;27;20046;-86
2022/06/19 11:22:32;;;;;;;6.50;1.85;;;16.20;99.90;;;;;;5117040;27;20407;-86
2022/06/19 11:25:18;;;;;;;6.82;1.75;;;16.10;99.90;;;;;;5096363;27;20436;-86
2022/06/19 11:28:02;;;;;;;8.88;1.63;;;16.10;99.90;;;;;;5090039;27;20055;-84
2022/06/19 11:30:50;;;;;;;6.35;1.55;;;16.10;99.90;;;;;;5110415;27;20112;-84
2022/06/19 11:33:31;;;;;;;5.93;1.45;;;16.20;99.90;;;;;;5116128;27;20047;-85
2022/06/19 11:36:01;;;;;;;4.57;1.20;;;16.30;99.90;;;;;;5114908;27;20436;-84
2022/06/19 11:38:35;;;;;;;9.10;2.25;;;16.40;99.90;;;;;;5114743;27;20047;-85
2022/06/19 11:41:34;;;;;;;5.47;1.48;;;16.40;99.90;;;;;;5117279;27;20042;-87
2022/06/19 11:44:06;;;;;;;7.15;1.40;;;16.50;99.90;;;;;;5110354;27;20058;-87
2022/06/19 11:46:52;;;;;;;8.05;1.60;;;16.50;99.90;;;;;;5117016;27;20494;-88
2022/06/19 11:49:29;;;;;;;4.50;1.52;;;16.50;99.90;;;;;;5094791;27;20043;-87
2022/06/19 11:51:58;;;;;;;5.47;1.92;;;16.40;99.90;;;;;;5114119;27;20530;-88
2022/06/19 11:54:42;;;;;;;4.78;1.23;;;16.40;99.90;;;;;;5116846;27;20039;-88
2022/06/19 11:57:27;;;;;;;9.23;1.67;;;16.40;99.90;;;;;;5087046;28;20043;-89
2022/06/19 11:59:58;;;;;;;5.63;1.77;;;16.30;99.90;;;;;;5097267;27;20039;-87
2022/06/19 12:02:31;;;;;;;10.52;1.38;;;16.30;99.90;;;;;;5097963;27;20036;-87
2022/06/19 12:05:00;;;;;;;6.43;1.35;;;16.20;99.90;;;;;;5097487;27;20493;-87
2022/06/19 12:07:30;;;;;;;5.22;1.40;;;16.10;99.90;;;;;;5099522;27;20035;-87
2022/06/19 12:10:19;;;;;;;8.55;1.52;;;16.00;99.90;;;;;;5115569;27;20058;-87
2022/06/19 12:12:57;;;;;;;5.82;1.60;;;16.10;99.90;;;;;;5100442;27;20312;-87
2022/06/19 12:15:28;;;;;;;4.38;1.30;;;16.20;99.90;;;;;;5117998;27;20047;-89
2022/06/19 12:18:12;;;;;;;5.35;1.45;;;16.50;99.90;;;;;;5119978;27;20031;-89
2022/06/19 12:20:39;;;;;;;4.18;1.63;;;16.80;99.90;;;;;;5115410;27;20043;-89
2022/06/19 12:23:18;;;;;;;4.65;1.50;;;16.90;99.90;;;;;;5081242;28;20092;-90
2022/06/19 12:26:01;;;;;;;5.18;1.30;;;17.20;99.90;;;;;;5109209;27;20119;-89
2022/06/19 12:28:38;;;;;;;5.20;1.40;;;17.40;99.90;;;;;;5115384;27;20043;-89
2022/06/19 12:31:15;;;;;;;4.53;1.25;;;17.70;99.90;;;;;;5101199;27;20039;-89
2022/06/19 12:33:46;;;;;;;4.72;1.02;;;17.90;99.90;;;;;;5114627;27;20103;-89
2022/06/19 12:36:15;;;;;;;5.28;1.27;;;18.40;99.90;;;;;;5092226;27;20573;-88
2022/06/19 12:38:42;;;;;;;4.28;1.20;;;18.60;99.90;;;;;;5098199;27;20071;-88
2022/06/19 12:41:41;;;;;;;5.07;1.30;;;18.60;99.90;;;;;;5099016;27;20041;-88
2022/06/19 12:44:52;;;;;;;3.05;1.00;;;18.60;99.90;;;;;;5119223;27;20035;-88
2022/06/19 12:47:44;;;;;;;6.00;1.20;;;18.60;99.90;;;;;;5100476;27;20039;-87
2022/06/19 12:50:34;;;;;;;4.28;1.30;;;18.60;99.90;;;;;;5101348;28;20044;-87
2022/06/19 12:53:25;;;;;;;3.20;1.10;;;18.60;99.90;;;;;;5102771;28;20039;-89
2022/06/19 12:56:16;;;;;;;5.30;1.30;;;18.50;99.90;;;;;;5097412;28;20049;-88
2022/06/19 12:58:57;;;;;;;3.90;1.15;;;18.40;99.90;;;;;;5114760;28;20039;-88
2022/06/19 13:01:44;;;;;;;5.15;1.20;;;18.30;99.90;;;;;;5120068;28;20072;-88
2022/06/19 13:04:25;;;;;;;4.85;1.45;;;18.10;99.90;;;;;;5118874;28;20035;-87
2022/06/19 13:07:21;;;;;;;7.07;1.10;;;18.00;99.90;;;;;;5092334;28;20487;-88
2022/06/19 13:10:19;;;;;;;6.43;1.13;;;18.00;99.90;;;;;;5126573;28;20076;-86
2022/06/19 13:13:10;;;;;;;2.65;0.98;;;18.00;99.90;;;;;;5133311;28;20039;-88